Главная страница
METAR-TAF:

METAR-TAF

Аэропорты :

Вршац, Сербия

широта: 45-09N, долгота: 021-19E, высота над уровнем моря: 83 м

Текущие метеонаблюдения

Эта сводка был подготовлена 18 минут назад, в 20:00 UTC
Ветер 3 Узел от северно-северо-западный, изменяющийся между западно-северо-западный и восточно-северо-восточный
Температура 11°C
Влажность 71%
Давление 1027 hPa
Видимость 10 км и более
Нет облачности ниже 1500 м, и нет кучево-дождевой облачности

METAR: LYVR 182000Z 33003KT 290V060 CAVOK 11/06 Q1027 NOSIG

Время: 22:18 (20:18 UTC)

Прогноз

Эта сводка был подготовлена 3 часа и 18 минут назад, в 17:00 UTC
Прогноз действительный с 18-го 18 UTC до 19-го 18 UTC
Ветер 6 Узел от северо-северо-восточный
Видимость 10 км и более
Отдельные облака на высоте 4000 фута
временами
С 19-го 03 UTC до 19-го 06 UTC
Видимость: 4000 м
дымка

TAF: LYVR 181700Z 1818/1918 02006KT 9999 SCT040 TX18/1913Z TN07/1904Z TEMPO 1903/1906 4000 BR

Метеонаблюдения и прогнозы для более 4000 аэропортов (сводки METAR и TAF).

Имеющиеся станции представлены на карте желтыми и красными точками.

Чтобы увидеть название станции, наведите на нее мышь.

Затем щелкните, чтобы увидеть метеонаблюдения и метеопрогнозы.

Управление картой: чтобы увеличить масштаб, щелкните зеленые кнопки с черным крестиком; чтобы уменьшить масштаб, щелкните зеленую кнопку с тире; для просмотра соседних карт щелкайте зеленые стрелки.


METAR-TAF: